sensor_id;sensor_type;location;lat;lon;timestamp;pressure;altitude;pressure_sealevel;temperature;humidity
10658;BME280;5377;43.276;26.930;2022-10-16T08:48:59;100033.28;;;23.29;34.22
10658;BME280;5377;43.276;26.930;2022-10-16T08:51:29;100019.16;;;23.00;34.22
10658;BME280;5377;43.276;26.930;2022-10-16T08:53:59;100045.13;;;23.45;33.68
10658;BME280;5377;43.276;26.930;2022-10-16T08:56:28;100074.72;;;24.05;33.08
10658;BME280;5377;43.276;26.930;2022-10-16T08:58:57;99983.19;;;23.66;33.04
10658;BME280;5377;43.276;26.930;2022-10-16T09:08:05;100062.66;;;24.01;32.61
10658;BME280;5377;43.276;26.930;2022-10-16T09:21:03;100036.50;;;23.21;32.70
10658;BME280;5377;43.276;26.930;2022-10-16T09:27:14;100050.97;;;23.16;32.99
10658;BME280;5377;43.276;26.930;2022-10-16T09:29:41;100031.81;;;23.58;32.90
10658;BME280;5377;43.276;26.930;2022-10-16T09:32:12;100057.19;;;24.06;32.75
10658;BME280;5377;43.276;26.930;2022-10-16T09:34:43;100029.38;;;24.35;32.08
10658;BME280;5377;43.276;26.930;2022-10-16T09:54:21;100051.59;;;24.58;30.29
10658;BME280;5377;43.276;26.930;2022-10-16T09:56:48;100034.59;;;25.28;30.17
10658;BME280;5377;43.276;26.930;2022-10-16T09:59:18;100030.78;;;25.13;30.29
10658;BME280;5377;43.276;26.930;2022-10-16T10:01:47;99920.69;;;24.30;30.44
10658;BME280;5377;43.276;26.930;2022-10-16T10:04:15;100026.16;;;25.04;29.60
10658;BME280;5377;43.276;26.930;2022-10-16T10:06:46;99949.97;;;24.45;29.15
10658;BME280;5377;43.276;26.930;2022-10-16T10:09:18;100018.66;;;25.40;29.07
10658;BME280;5377;43.276;26.930;2022-10-16T10:11:52;99986.13;;;25.03;29.05
10658;BME280;5377;43.276;26.930;2022-10-16T10:14:28;100041.63;;;25.59;29.44
10658;BME280;5377;43.276;26.930;2022-10-16T10:17:18;100010.00;;;25.87;27.95
10658;BME280;5377;43.276;26.930;2022-10-16T10:20:24;100009.53;;;25.70;28.47
10658;BME280;5377;43.276;26.930;2022-10-16T10:26:33;99975.31;;;25.42;28.08
10658;BME280;5377;43.276;26.930;2022-10-16T10:29:07;100032.41;;;26.09;27.46
10658;BME280;5377;43.276;26.930;2022-10-16T10:32:18;100031.50;;;25.55;27.95
10658;BME280;5377;43.276;26.930;2022-10-16T10:38:27;99949.72;;;25.62;27.07
10658;BME280;5377;43.276;26.930;2022-10-16T10:41:51;100029.94;;;24.98;28.03
10658;BME280;5377;43.276;26.930;2022-10-16T10:51:34;100001.81;;;25.82;27.08
10658;BME280;5377;43.276;26.930;2022-10-16T10:57:43;100019.97;;;26.22;26.59
10658;BME280;5377;43.276;26.930;2022-10-16T11:00:52;99974.53;;;25.96;27.14
10658;BME280;5377;43.276;26.930;2022-10-16T11:03:37;99991.34;;;26.38;25.27
10658;BME280;5377;43.276;26.930;2022-10-16T11:06:12;99994.25;;;26.52;25.55
10658;BME280;5377;43.276;26.930;2022-10-16T11:08:50;99930.84;;;25.99;25.87
10658;BME280;5377;43.276;26.930;2022-10-16T11:11:30;100002.91;;;26.25;25.82
10658;BME280;5377;43.276;26.930;2022-10-16T11:14:03;99976.94;;;26.52;26.08
10658;BME280;5377;43.276;26.930;2022-10-16T11:16:37;99968.31;;;26.24;25.84
10658;BME280;5377;43.276;26.930;2022-10-16T11:19:12;99992.81;;;26.89;25.83
10658;BME280;5377;43.276;26.930;2022-10-16T11:22:21;99980.06;;;26.74;26.24
10658;BME280;5377;43.276;26.930;2022-10-16T11:24:59;99982.19;;;27.59;25.42
10658;BME280;5377;43.276;26.930;2022-10-16T11:27:52;100015.91;;;27.93;24.90
10658;BME280;5377;43.276;26.930;2022-10-16T11:30:24;99991.31;;;27.54;24.07
10658;BME280;5377;43.276;26.930;2022-10-16T11:33:03;99976.50;;;27.26;24.73
10658;BME280;5377;43.276;26.930;2022-10-16T11:35:41;99973.47;;;27.52;24.26
10658;BME280;5377;43.276;26.930;2022-10-16T11:38:15;100008.41;;;27.75;23.87
10658;BME280;5377;43.276;26.930;2022-10-16T11:40:50;99973.44;;;27.04;23.83
10658;BME280;5377;43.276;26.930;2022-10-16T11:43:32;99965.28;;;27.23;23.97
10658;BME280;5377;43.276;26.930;2022-10-16T11:46:05;99992.75;;;26.99;24.37
10658;BME280;5377;43.276;26.930;2022-10-16T11:48:41;100000.34;;;26.78;25.51
10658;BME280;5377;43.276;26.930;2022-10-16T11:51:16;100001.66;;;26.86;24.91
10658;BME280;5377;43.276;26.930;2022-10-16T11:53:53;99916.72;;;26.21;24.44
10658;BME280;5377;43.276;26.930;2022-10-16T11:56:28;100007.53;;;26.74;25.03
10658;BME280;5377;43.276;26.930;2022-10-16T11:59:00;100006.31;;;26.56;24.75
10658;BME280;5377;43.276;26.930;2022-10-16T12:01:33;99956.47;;;26.29;25.04
10658;BME280;5377;43.276;26.930;2022-10-16T12:04:14;100005.97;;;27.26;24.86
10658;BME280;5377;43.276;26.930;2022-10-16T12:06:46;99989.94;;;27.04;24.53
10658;BME280;5377;43.276;26.930;2022-10-16T12:09:19;99988.91;;;26.95;23.98
10658;BME280;5377;43.276;26.930;2022-10-16T12:12:01;99973.63;;;26.84;24.02
10658;BME280;5377;43.276;26.930;2022-10-16T12:14:46;99954.13;;;26.51;23.74
10658;BME280;5377;43.276;26.930;2022-10-16T12:17:25;100014.50;;;27.24;23.87
10658;BME280;5377;43.276;26.930;2022-10-16T12:20:00;100018.97;;;26.52;24.07
10658;BME280;5377;43.276;26.930;2022-10-16T12:22:29;99974.16;;;25.68;24.56
10658;BME280;5377;43.276;26.930;2022-10-16T12:28:06;100038.47;;;26.06;25.71
10658;BME280;5377;43.276;26.930;2022-10-16T12:30:41;99971.19;;;25.44;24.30
10658;BME280;5377;43.276;26.930;2022-10-16T12:33:35;100026.69;;;26.50;24.56
10658;BME280;5377;43.276;26.930;2022-10-16T12:36:06;99919.03;;;25.55;24.18
10658;BME280;5377;43.276;26.930;2022-10-16T12:38:38;99975.41;;;25.86;24.57
10658;BME280;5377;43.276;26.930;2022-10-16T12:41:38;100017.84;;;26.09;24.85
10658;BME280;5377;43.276;26.930;2022-10-16T12:44:23;100012.41;;;26.48;24.35
10658;BME280;5377;43.276;26.930;2022-10-16T12:46:51;99929.41;;;26.51;23.99
10658;BME280;5377;43.276;26.930;2022-10-16T12:49:28;99973.00;;;26.92;23.79
10658;BME280;5377;43.276;26.930;2022-10-16T12:51:56;99983.88;;;27.07;23.40
10658;BME280;5377;43.276;26.930;2022-10-16T12:54:28;99936.09;;;26.40;23.15
10658;BME280;5377;43.276;26.930;2022-10-16T12:57:13;99979.00;;;26.65;22.67
10658;BME280;5377;43.276;26.930;2022-10-16T12:59:58;100024.50;;;27.39;22.59
10658;BME280;5377;43.276;26.930;2022-10-16T13:06:05;99909.38;;;25.72;24.00
10658;BME280;5377;43.276;26.930;2022-10-16T13:09:13;100057.25;;;25.79;24.21
10658;BME280;5377;43.276;26.930;2022-10-16T13:11:54;100004.50;;;25.87;24.14
10658;BME280;5377;43.276;26.930;2022-10-16T13:18:13;100030.16;;;26.17;24.01
10658;BME280;5377;43.276;26.930;2022-10-16T13:21:02;100043.66;;;26.13;23.42
10658;BME280;5377;43.276;26.930;2022-10-16T13:23:34;100009.72;;;26.33;23.66
10658;BME280;5377;43.276;26.930;2022-10-16T13:26:13;100019.78;;;26.08;23.61
10658;BME280;5377;43.276;26.930;2022-10-16T13:28:43;100008.84;;;26.03;23.75
10658;BME280;5377;43.276;26.930;2022-10-16T13:31:17;100042.25;;;26.60;23.12
10658;BME280;5377;43.276;26.930;2022-10-16T13:33:48;100038.84;;;26.78;23.12
10658;BME280;5377;43.276;26.930;2022-10-16T13:36:22;100030.81;;;26.48;23.05
10658;BME280;5377;43.276;26.930;2022-10-16T13:38:59;100016.34;;;26.71;23.36
10658;BME280;5377;43.276;26.930;2022-10-16T13:41:27;100031.75;;;26.72;22.85
10658;BME280;5377;43.276;26.930;2022-10-16T13:43:54;99934.19;;;26.35;23.03
10658;BME280;5377;43.276;26.930;2022-10-16T13:46:23;99999.84;;;26.32;23.02
10658;BME280;5377;43.276;26.930;2022-10-16T13:48:58;100000.84;;;26.51;22.52
10658;BME280;5377;43.276;26.930;2022-10-16T13:51:26;100043.00;;;26.76;23.00
10658;BME280;5377;43.276;26.930;2022-10-16T13:53:55;99955.66;;;25.84;23.22
10658;BME280;5377;43.276;26.930;2022-10-16T13:56:25;100028.50;;;26.21;23.63
10658;BME280;5377;43.276;26.930;2022-10-16T13:59:00;100061.66;;;25.65;23.23
10658;BME280;5377;43.276;26.930;2022-10-16T14:01:39;100020.06;;;25.37;23.17
10658;BME280;5377;43.276;26.930;2022-10-16T14:04:10;100044.03;;;25.91;23.48
10658;BME280;5377;43.276;26.930;2022-10-16T14:06:41;100055.44;;;25.34;24.09
10658;BME280;5377;43.276;26.930;2022-10-16T14:09:17;100005.88;;;24.64;24.54
10658;BME280;5377;43.276;26.930;2022-10-16T14:11:58;100037.38;;;25.12;23.64
10658;BME280;5377;43.276;26.930;2022-10-16T14:14:27;100063.94;;;25.22;24.30
10658;BME280;5377;43.276;26.930;2022-10-16T14:17:03;100057.88;;;24.54;24.29
10658;BME280;5377;43.276;26.930;2022-10-16T14:19:31;100033.53;;;24.83;24.23
10658;BME280;5377;43.276;26.930;2022-10-16T14:21:59;100035.97;;;24.95;24.70
10658;BME280;5377;43.276;26.930;2022-10-16T14:24:32;100065.03;;;24.96;25.43
10658;BME280;5377;43.276;26.930;2022-10-16T14:26:59;100034.88;;;24.50;24.87
10658;BME280;5377;43.276;26.930;2022-10-16T14:29:30;100074.94;;;25.02;24.59
10658;BME280;5377;43.276;26.930;2022-10-16T14:31:58;100056.00;;;24.85;24.07
10658;BME280;5377;43.276;26.930;2022-10-16T14:34:28;100065.91;;;25.06;24.70
10658;BME280;5377;43.276;26.930;2022-10-16T14:36:58;100077.75;;;24.09;25.15
10658;BME280;5377;43.276;26.930;2022-10-16T14:39:30;100074.75;;;24.20;25.83
10658;BME280;5377;43.276;26.930;2022-10-16T14:41:57;100018.53;;;23.82;25.98
10658;BME280;5377;43.276;26.930;2022-10-16T14:44:30;100059.25;;;24.41;25.60
10658;BME280;5377;43.276;26.930;2022-10-16T14:50:39;100078.53;;;23.99;26.73
10658;BME280;5377;43.276;26.930;2022-10-16T14:53:11;100067.59;;;23.99;26.54
10658;BME280;5377;43.276;26.930;2022-10-16T14:55:38;100076.22;;;23.76;26.29
10658;BME280;5377;43.276;26.930;2022-10-16T14:58:06;100077.03;;;23.71;26.43
10658;BME280;5377;43.276;26.930;2022-10-16T15:00:36;100079.81;;;23.81;26.72
10658;BME280;5377;43.276;26.930;2022-10-16T15:03:03;100070.50;;;23.35;27.69
10658;BME280;5377;43.276;26.930;2022-10-16T15:05:40;100093.22;;;22.77;28.03
10658;BME280;5377;43.276;26.930;2022-10-16T15:08:11;100098.25;;;22.09;29.04
10658;BME280;5377;43.276;26.930;2022-10-16T15:10:40;100073.16;;;21.30;29.75
10658;BME280;5377;43.276;26.930;2022-10-16T15:13:11;100018.84;;;20.56;30.53
10658;BME280;5377;43.276;26.930;2022-10-16T15:15:42;100109.25;;;20.58;31.44
10658;BME280;5377;43.276;26.930;2022-10-16T15:18:09;100092.78;;;20.24;31.98
10658;BME280;5377;43.276;26.930;2022-10-16T15:20:38;100100.78;;;20.03;32.44
10658;BME280;5377;43.276;26.930;2022-10-16T15:23:27;100109.72;;;19.63;33.47
10658;BME280;5377;43.276;26.930;2022-10-16T15:25:55;100103.81;;;19.43;33.49
10658;BME280;5377;43.276;26.930;2022-10-16T15:28:24;100125.03;;;19.11;33.92
10658;BME280;5377;43.276;26.930;2022-10-16T15:30:52;100124.97;;;18.87;34.54
10658;BME280;5377;43.276;26.930;2022-10-16T15:33:25;100091.84;;;18.37;35.85
10658;BME280;5377;43.276;26.930;2022-10-16T15:36:06;100123.16;;;18.39;36.00
10658;BME280;5377;43.276;26.930;2022-10-16T15:38:35;100148.81;;;18.37;36.39
10658;BME280;5377;43.276;26.930;2022-10-16T15:41:11;100184.72;;;18.21;36.65
10658;BME280;5377;43.276;26.930;2022-10-16T15:43:41;100155.28;;;18.06;36.49
10658;BME280;5377;43.276;26.930;2022-10-16T15:46:41;100146.81;;;17.77;37.71
10658;BME280;5377;43.276;26.930;2022-10-16T16:25:28;100221.38;;;16.03;42.39
10658;BME280;5377;43.276;26.930;2022-10-16T16:27:55;100223.47;;;15.81;42.69
10658;BME280;5377;43.276;26.930;2022-10-16T16:30:22;100228.88;;;15.81;43.47
10658;BME280;5377;43.276;26.930;2022-10-16T16:43:24;100236.31;;;15.52;45.06
